sensor_id;sensor_type;location;lat;lon;timestamp;P1;durP1;ratioP1;P2;durP2;ratioP2
23270;SDS011;11804;51.118;17.058;2022-12-31T00:01:18;40.20;;;22.33;;
23270;SDS011;11804;51.118;17.058;2022-12-31T00:03:47;40.03;;;22.20;;
23270;SDS011;11804;51.118;17.058;2022-12-31T00:06:20;48.47;;;23.23;;
23270;SDS011;11804;51.118;17.058;2022-12-31T00:08:55;40.33;;;21.83;;
23270;SDS011;11804;51.118;17.058;2022-12-31T00:11:22;36.77;;;20.20;;
23270;SDS011;11804;51.118;17.058;2022-12-31T00:13:51;34.97;;;20.50;;
23270;SDS011;11804;51.118;17.058;2022-12-31T00:16:21;34.47;;;21.00;;
23270;SDS011;11804;51.118;17.058;2022-12-31T00:18:51;38.70;;;21.40;;
23270;SDS011;11804;51.118;17.058;2022-12-31T00:21:21;34.23;;;20.27;;
23270;SDS011;11804;51.118;17.058;2022-12-31T00:23:48;30.00;;;17.67;;
23270;SDS011;11804;51.118;17.058;2022-12-31T00:26:17;29.47;;;17.90;;
23270;SDS011;11804;51.118;17.058;2022-12-31T00:28:47;30.00;;;17.90;;
23270;SDS011;11804;51.118;17.058;2022-12-31T00:31:16;29.17;;;16.60;;
23270;SDS011;11804;51.118;17.058;2022-12-31T00:33:45;28.07;;;16.33;;
23270;SDS011;11804;51.118;17.058;2022-12-31T00:36:17;26.37;;;15.60;;
23270;SDS011;11804;51.118;17.058;2022-12-31T00:38:47;24.43;;;15.03;;
23270;SDS011;11804;51.118;17.058;2022-12-31T00:41:16;22.30;;;13.70;;
23270;SDS011;11804;51.118;17.058;2022-12-31T00:43:45;21.47;;;12.87;;
23270;SDS011;11804;51.118;17.058;2022-12-31T00:46:13;26.50;;;13.70;;
23270;SDS011;11804;51.118;17.058;2022-12-31T00:48:42;23.23;;;13.53;;
23270;SDS011;11804;51.118;17.058;2022-12-31T00:51:11;18.70;;;12.30;;
23270;SDS011;11804;51.118;17.058;2022-12-31T00:53:40;19.03;;;11.43;;
23270;SDS011;11804;51.118;17.058;2022-12-31T00:56:17;19.13;;;11.47;;
23270;SDS011;11804;51.118;17.058;2022-12-31T00:58:42;21.10;;;11.27;;
23270;SDS011;11804;51.118;17.058;2022-12-31T01:01:14;18.93;;;11.80;;
23270;SDS011;11804;51.118;17.058;2022-12-31T01:03:43;18.00;;;11.00;;
23270;SDS011;11804;51.118;17.058;2022-12-31T01:06:12;18.60;;;11.43;;
23270;SDS011;11804;51.118;17.058;2022-12-31T01:08:40;18.23;;;11.10;;
23270;SDS011;11804;51.118;17.058;2022-12-31T01:11:09;17.80;;;10.70;;
23270;SDS011;11804;51.118;17.058;2022-12-31T01:13:52;16.40;;;10.20;;
23270;SDS011;11804;51.118;17.058;2022-12-31T01:16:23;17.57;;;10.47;;
23270;SDS011;11804;51.118;17.058;2022-12-31T01:18:52;15.73;;;10.33;;
23270;SDS011;11804;51.118;17.058;2022-12-31T01:21:20;14.87;;;10.07;;
23270;SDS011;11804;51.118;17.058;2022-12-31T01:23:49;12.13;;;8.80;;
23270;SDS011;11804;51.118;17.058;2022-12-31T01:26:18;14.47;;;9.10;;
23270;SDS011;11804;51.118;17.058;2022-12-31T01:28:46;13.70;;;9.13;;
23270;SDS011;11804;51.118;17.058;2022-12-31T01:31:15;12.03;;;8.77;;
23270;SDS011;11804;51.118;17.058;2022-12-31T01:33:44;12.43;;;8.73;;
23270;SDS011;11804;51.118;17.058;2022-12-31T01:36:14;12.23;;;8.47;;
23270;SDS011;11804;51.118;17.058;2022-12-31T01:38:43;12.37;;;8.97;;
23270;SDS011;11804;51.118;17.058;2022-12-31T01:41:12;13.20;;;9.30;;
23270;SDS011;11804;51.118;17.058;2022-12-31T01:46:25;12.60;;;8.60;;
23270;SDS011;11804;51.118;17.058;2022-12-31T01:48:55;12.47;;;8.10;;
23270;SDS011;11804;51.118;17.058;2022-12-31T01:51:25;11.20;;;8.37;;
23270;SDS011;11804;51.118;17.058;2022-12-31T01:53:55;11.27;;;7.80;;
23270;SDS011;11804;51.118;17.058;2022-12-31T01:56:24;11.93;;;8.40;;
23270;SDS011;11804;51.118;17.058;2022-12-31T01:58:53;11.57;;;8.00;;
23270;SDS011;11804;51.118;17.058;2022-12-31T02:01:27;13.13;;;7.97;;
23270;SDS011;11804;51.118;17.058;2022-12-31T02:03:53;10.80;;;8.00;;
23270;SDS011;11804;51.118;17.058;2022-12-31T02:06:30;11.37;;;8.23;;
23270;SDS011;11804;51.118;17.058;2022-12-31T02:08:58;11.93;;;7.77;;
23270;SDS011;11804;51.118;17.058;2022-12-31T02:11:28;10.07;;;7.60;;
23270;SDS011;11804;51.118;17.058;2022-12-31T02:14:02;10.93;;;7.40;;
23270;SDS011;11804;51.118;17.058;2022-12-31T02:16:44;11.80;;;7.87;;
23270;SDS011;11804;51.118;17.058;2022-12-31T02:25:23;10.20;;;7.37;;
23270;SDS011;11804;51.118;17.058;2022-12-31T02:27:52;9.83;;;7.10;;
23270;SDS011;11804;51.118;17.058;2022-12-31T02:30:23;9.20;;;6.13;;
23270;SDS011;11804;51.118;17.058;2022-12-31T02:38:20;7.13;;;5.30;;
23270;SDS011;11804;51.118;17.058;2022-12-31T02:40:52;8.03;;;5.53;;
23270;SDS011;11804;51.118;17.058;2022-12-31T02:43:20;6.67;;;5.00;;
23270;SDS011;11804;51.118;17.058;2022-12-31T02:45:49;6.23;;;4.57;;
23270;SDS011;11804;51.118;17.058;2022-12-31T02:48:25;5.80;;;4.57;;
23270;SDS011;11804;51.118;17.058;2022-12-31T02:51:31;5.60;;;4.30;;
23270;SDS011;11804;51.118;17.058;2022-12-31T02:56:56;7.40;;;4.60;;
23270;SDS011;11804;51.118;17.058;2022-12-31T02:59:49;6.97;;;4.83;;
23270;SDS011;11804;51.118;17.058;2022-12-31T03:02:38;6.00;;;4.27;;
23270;SDS011;11804;51.118;17.058;2022-12-31T03:05:08;6.07;;;4.60;;
23270;SDS011;11804;51.118;17.058;2022-12-31T03:07:38;6.40;;;4.73;;
23270;SDS011;11804;51.118;17.058;2022-12-31T03:10:07;5.77;;;4.47;;
23270;SDS011;11804;51.118;17.058;2022-12-31T03:12:36;6.23;;;4.40;;
23270;SDS011;11804;51.118;17.058;2022-12-31T03:15:20;7.17;;;4.17;;
23270;SDS011;11804;51.118;17.058;2022-12-31T03:17:49;6.30;;;3.93;;
23270;SDS011;11804;51.118;17.058;2022-12-31T03:20:19;5.60;;;4.60;;
23270;SDS011;11804;51.118;17.058;2022-12-31T03:23:07;6.00;;;4.10;;
23270;SDS011;11804;51.118;17.058;2022-12-31T03:25:36;5.23;;;3.90;;
23270;SDS011;11804;51.118;17.058;2022-12-31T03:28:10;5.90;;;4.40;;
23270;SDS011;11804;51.118;17.058;2022-12-31T03:30:36;5.20;;;4.23;;
23270;SDS011;11804;51.118;17.058;2022-12-31T03:33:05;5.03;;;4.10;;
23270;SDS011;11804;51.118;17.058;2022-12-31T03:35:34;4.93;;;3.90;;
23270;SDS011;11804;51.118;17.058;2022-12-31T03:38:04;6.53;;;4.20;;
23270;SDS011;11804;51.118;17.058;2022-12-31T03:40:32;5.60;;;4.30;;
23270;SDS011;11804;51.118;17.058;2022-12-31T03:43:05;5.90;;;4.30;;
23270;SDS011;11804;51.118;17.058;2022-12-31T03:45:33;6.00;;;4.30;;
23270;SDS011;11804;51.118;17.058;2022-12-31T03:48:01;5.33;;;4.40;;
23270;SDS011;11804;51.118;17.058;2022-12-31T03:50:29;5.87;;;4.33;;
23270;SDS011;11804;51.118;17.058;2022-12-31T03:52:57;5.90;;;4.10;;
23270;SDS011;11804;51.118;17.058;2022-12-31T03:55:25;5.40;;;4.10;;
23270;SDS011;11804;51.118;17.058;2022-12-31T03:57:53;5.40;;;4.10;;
23270;SDS011;11804;51.118;17.058;2022-12-31T04:00:20;5.73;;;4.07;;
23270;SDS011;11804;51.118;17.058;2022-12-31T04:02:48;5.53;;;4.30;;
23270;SDS011;11804;51.118;17.058;2022-12-31T04:05:17;6.00;;;4.20;;
23270;SDS011;11804;51.118;17.058;2022-12-31T04:07:45;5.37;;;4.00;;
23270;SDS011;11804;51.118;17.058;2022-12-31T04:10:14;5.57;;;4.20;;
23270;SDS011;11804;51.118;17.058;2022-12-31T04:12:43;4.90;;;4.10;;
23270;SDS011;11804;51.118;17.058;2022-12-31T04:15:14;5.90;;;4.50;;
23270;SDS011;11804;51.118;17.058;2022-12-31T04:17:44;5.97;;;3.93;;
23270;SDS011;11804;51.118;17.058;2022-12-31T04:20:12;5.33;;;4.33;;
23270;SDS011;11804;51.118;17.058;2022-12-31T04:22:40;6.13;;;3.80;;
23270;SDS011;11804;51.118;17.058;2022-12-31T04:25:09;4.90;;;3.93;;
23270;SDS011;11804;51.118;17.058;2022-12-31T04:27:38;4.50;;;3.87;;
23270;SDS011;11804;51.118;17.058;2022-12-31T04:30:08;5.83;;;3.80;;
23270;SDS011;11804;51.118;17.058;2022-12-31T04:32:37;4.80;;;3.57;;
23270;SDS011;11804;51.118;17.058;2022-12-31T04:35:06;4.57;;;3.63;;
23270;SDS011;11804;51.118;17.058;2022-12-31T04:37:34;4.37;;;3.77;;
23270;SDS011;11804;51.118;17.058;2022-12-31T04:40:02;4.67;;;3.53;;
23270;SDS011;11804;51.118;17.058;2022-12-31T04:42:30;5.50;;;3.37;;
23270;SDS011;11804;51.118;17.058;2022-12-31T04:44:58;5.10;;;3.47;;
23270;SDS011;11804;51.118;17.058;2022-12-31T04:47:26;5.30;;;3.37;;
23270;SDS011;11804;51.118;17.058;2022-12-31T04:49:54;5.40;;;3.57;;
23270;SDS011;11804;51.118;17.058;2022-12-31T04:52:22;5.20;;;3.37;;
23270;SDS011;11804;51.118;17.058;2022-12-31T04:54:49;4.40;;;3.27;;
23270;SDS011;11804;51.118;17.058;2022-12-31T04:57:17;4.10;;;3.47;;
23270;SDS011;11804;51.118;17.058;2022-12-31T04:59:45;4.23;;;3.40;;
23270;SDS011;11804;51.118;17.058;2022-12-31T05:02:12;5.40;;;3.60;;
23270;SDS011;11804;51.118;17.058;2022-12-31T05:04:40;3.37;;;3.00;;
23270;SDS011;11804;51.118;17.058;2022-12-31T05:07:08;4.13;;;3.30;;
23270;SDS011;11804;51.118;17.058;2022-12-31T05:09:35;4.10;;;3.27;;
23270;SDS011;11804;51.118;17.058;2022-12-31T05:12:03;6.50;;;3.30;;
23270;SDS011;11804;51.118;17.058;2022-12-31T05:14:32;5.23;;;3.70;;
23270;SDS011;11804;51.118;17.058;2022-12-31T05:17:00;6.57;;;3.60;;
23270;SDS011;11804;51.118;17.058;2022-12-31T05:19:28;4.67;;;3.30;;
23270;SDS011;11804;51.118;17.058;2022-12-31T05:21:55;4.60;;;3.53;;
23270;SDS011;11804;51.118;17.058;2022-12-31T05:24:25;4.63;;;3.50;;
23270;SDS011;11804;51.118;17.058;2022-12-31T05:26:52;4.40;;;3.37;;
23270;SDS011;11804;51.118;17.058;2022-12-31T05:29:20;5.20;;;3.40;;
23270;SDS011;11804;51.118;17.058;2022-12-31T05:31:47;4.00;;;3.13;;
23270;SDS011;11804;51.118;17.058;2022-12-31T05:34:15;3.10;;;2.70;;
23270;SDS011;11804;51.118;17.058;2022-12-31T05:36:42;4.00;;;3.23;;
23270;SDS011;11804;51.118;17.058;2022-12-31T05:39:10;3.90;;;2.83;;
23270;SDS011;11804;51.118;17.058;2022-12-31T05:41:37;5.37;;;3.23;;
23270;SDS011;11804;51.118;17.058;2022-12-31T05:44:05;4.00;;;3.10;;
23270;SDS011;11804;51.118;17.058;2022-12-31T05:46:33;3.10;;;2.80;;
23270;SDS011;11804;51.118;17.058;2022-12-31T05:49:00;3.53;;;3.00;;
23270;SDS011;11804;51.118;17.058;2022-12-31T05:51:28;4.23;;;3.20;;
23270;SDS011;11804;51.118;17.058;2022-12-31T05:53:57;6.77;;;3.43;;
23270;SDS011;11804;51.118;17.058;2022-12-31T05:56:30;4.03;;;3.23;;
23270;SDS011;11804;51.118;17.058;2022-12-31T05:58:59;5.50;;;3.10;;
23270;SDS011;11804;51.118;17.058;2022-12-31T06:01:25;4.43;;;3.10;;
23270;SDS011;11804;51.118;17.058;2022-12-31T06:03:52;3.40;;;3.07;;
23270;SDS011;11804;51.118;17.058;2022-12-31T06:06:20;4.80;;;3.13;;
23270;SDS011;11804;51.118;17.058;2022-12-31T06:08:49;4.43;;;3.27;;
23270;SDS011;11804;51.118;17.058;2022-12-31T06:11:17;3.77;;;3.03;;
23270;SDS011;11804;51.118;17.058;2022-12-31T06:13:45;4.90;;;3.30;;
23270;SDS011;11804;51.118;17.058;2022-12-31T06:16:13;3.80;;;2.97;;
23270;SDS011;11804;51.118;17.058;2022-12-31T06:18:40;3.60;;;2.97;;
23270;SDS011;11804;51.118;17.058;2022-12-31T06:21:08;3.27;;;2.80;;
23270;SDS011;11804;51.118;17.058;2022-12-31T06:23:36;3.57;;;2.87;;
23270;SDS011;11804;51.118;17.058;2022-12-31T06:26:05;3.60;;;2.67;;
23270;SDS011;11804;51.118;17.058;2022-12-31T06:28:33;3.40;;;3.00;;
23270;SDS011;11804;51.118;17.058;2022-12-31T06:31:01;4.60;;;3.10;;
23270;SDS011;11804;51.118;17.058;2022-12-31T06:33:30;3.83;;;2.70;;
23270;SDS011;11804;51.118;17.058;2022-12-31T06:35:59;4.03;;;2.93;;
23270;SDS011;11804;51.118;17.058;2022-12-31T06:38:29;3.43;;;2.90;;
23270;SDS011;11804;51.118;17.058;2022-12-31T06:41:07;3.70;;;2.90;;
23270;SDS011;11804;51.118;17.058;2022-12-31T06:43:31;3.90;;;2.90;;
23270;SDS011;11804;51.118;17.058;2022-12-31T06:46:00;3.57;;;2.90;;
23270;SDS011;11804;51.118;17.058;2022-12-31T06:48:30;3.70;;;2.90;;
23270;SDS011;11804;51.118;17.058;2022-12-31T06:51:05;3.63;;;3.00;;
23270;SDS011;11804;51.118;17.058;2022-12-31T06:53:34;3.10;;;2.80;;
23270;SDS011;11804;51.118;17.058;2022-12-31T06:56:12;4.13;;;3.20;;
23270;SDS011;11804;51.118;17.058;2022-12-31T06:58:42;4.07;;;3.57;;
23270;SDS011;11804;51.118;17.058;2022-12-31T07:04:09;5.10;;;4.10;;
23270;SDS011;11804;51.118;17.058;2022-12-31T07:07:00;6.40;;;4.10;;
23270;SDS011;11804;51.118;17.058;2022-12-31T07:09:44;4.87;;;4.27;;
23270;SDS011;11804;51.118;17.058;2022-12-31T07:17:37;4.43;;;3.67;;
23270;SDS011;11804;51.118;17.058;2022-12-31T07:20:19;5.27;;;4.10;;
23270;SDS011;11804;51.118;17.058;2022-12-31T07:22:49;5.43;;;3.73;;
23270;SDS011;11804;51.118;17.058;2022-12-31T07:25:17;4.10;;;3.50;;
23270;SDS011;11804;51.118;17.058;2022-12-31T07:30:35;4.10;;;3.60;;
23270;SDS011;11804;51.118;17.058;2022-12-31T07:33:22;3.90;;;3.50;;
23270;SDS011;11804;51.118;17.058;2022-12-31T07:41:40;5.20;;;4.27;;
23270;SDS011;11804;51.118;17.058;2022-12-31T07:47:17;4.23;;;3.30;;
23270;SDS011;11804;51.118;17.058;2022-12-31T07:49:47;5.30;;;3.43;;
23270;SDS011;11804;51.118;17.058;2022-12-31T07:52:15;4.77;;;3.63;;
23270;SDS011;11804;51.118;17.058;2022-12-31T07:54:44;6.63;;;3.73;;
23270;SDS011;11804;51.118;17.058;2022-12-31T07:57:13;5.70;;;3.70;;
23270;SDS011;11804;51.118;17.058;2022-12-31T07:59:57;3.90;;;3.30;;
23270;SDS011;11804;51.118;17.058;2022-12-31T08:02:29;3.20;;;2.80;;
23270;SDS011;11804;51.118;17.058;2022-12-31T08:05:14;4.53;;;3.03;;
23270;SDS011;11804;51.118;17.058;2022-12-31T08:07:54;3.60;;;3.00;;
23270;SDS011;11804;51.118;17.058;2022-12-31T08:10:38;3.77;;;2.90;;
23270;SDS011;11804;51.118;17.058;2022-12-31T08:13:24;4.27;;;3.13;;
23270;SDS011;11804;51.118;17.058;2022-12-31T08:15:52;3.23;;;2.63;;
23270;SDS011;11804;51.118;17.058;2022-12-31T08:18:20;5.43;;;2.53;;
23270;SDS011;11804;51.118;17.058;2022-12-31T08:26:33;3.80;;;2.57;;
23270;SDS011;11804;51.118;17.058;2022-12-31T08:29:07;4.77;;;3.10;;
23270;SDS011;11804;51.118;17.058;2022-12-31T08:31:55;4.50;;;3.03;;
23270;SDS011;11804;51.118;17.058;2022-12-31T08:34:32;3.77;;;3.30;;
23270;SDS011;11804;51.118;17.058;2022-12-31T08:37:21;7.20;;;3.50;;
23270;SDS011;11804;51.118;17.058;2022-12-31T08:39:54;4.30;;;2.83;;
23270;SDS011;11804;51.118;17.058;2022-12-31T08:45:34;2.97;;;2.47;;
23270;SDS011;11804;51.118;17.058;2022-12-31T08:48:04;3.03;;;2.60;;
23270;SDS011;11804;51.118;17.058;2022-12-31T08:50:48;3.40;;;2.57;;
23270;SDS011;11804;51.118;17.058;2022-12-31T08:53:16;3.87;;;2.70;;
23270;SDS011;11804;51.118;17.058;2022-12-31T08:55:44;4.57;;;2.20;;
23270;SDS011;11804;51.118;17.058;2022-12-31T09:00:54;2.80;;;2.50;;
23270;SDS011;11804;51.118;17.058;2022-12-31T09:06:30;4.00;;;2.37;;
23270;SDS011;11804;51.118;17.058;2022-12-31T09:17:20;4.67;;;2.87;;
23270;SDS011;11804;51.118;17.058;2022-12-31T09:19:51;3.00;;;2.30;;
23270;SDS011;11804;51.118;17.058;2022-12-31T09:22:19;4.20;;;2.70;;
23270;SDS011;11804;51.118;17.058;2022-12-31T09:24:47;3.03;;;2.30;;
23270;SDS011;11804;51.118;17.058;2022-12-31T09:27:23;4.27;;;2.40;;
23270;SDS011;11804;51.118;17.058;2022-12-31T09:30:02;3.27;;;2.40;;
23270;SDS011;11804;51.118;17.058;2022-12-31T09:32:46;2.97;;;2.23;;
23270;SDS011;11804;51.118;17.058;2022-12-31T09:40:49;2.90;;;2.40;;
23270;SDS011;11804;51.118;17.058;2022-12-31T09:43:28;3.10;;;1.83;;
23270;SDS011;11804;51.118;17.058;2022-12-31T09:51:31;2.23;;;1.80;;
23270;SDS011;11804;51.118;17.058;2022-12-31T09:54:26;2.20;;;1.80;;
23270;SDS011;11804;51.118;17.058;2022-12-31T10:05:27;2.67;;;2.00;;
23270;SDS011;11804;51.118;17.058;2022-12-31T10:10:29;1.97;;;1.60;;
23270;SDS011;11804;51.118;17.058;2022-12-31T10:22:10;3.27;;;2.23;;
23270;SDS011;11804;51.118;17.058;2022-12-31T10:24:52;3.00;;;2.10;;
23270;SDS011;11804;51.118;17.058;2022-12-31T10:30:19;2.37;;;1.80;;
23270;SDS011;11804;51.118;17.058;2022-12-31T10:35:57;2.33;;;1.70;;
23270;SDS011;11804;51.118;17.058;2022-12-31T10:38:46;3.43;;;1.70;;
23270;SDS011;11804;51.118;17.058;2022-12-31T10:56:14;2.57;;;2.10;;
23270;SDS011;11804;51.118;17.058;2022-12-31T10:58:44;4.37;;;1.87;;
23270;SDS011;11804;51.118;17.058;2022-12-31T11:12:15;2.87;;;1.70;;
23270;SDS011;11804;51.118;17.058;2022-12-31T11:20:53;5.97;;;1.83;;
23270;SDS011;11804;51.118;17.058;2022-12-31T11:26:38;3.63;;;2.03;;
23270;SDS011;11804;51.118;17.058;2022-12-31T11:32:21;2.83;;;1.43;;
23270;SDS011;11804;51.118;17.058;2022-12-31T11:37:28;2.73;;;1.63;;
23270;SDS011;11804;51.118;17.058;2022-12-31T11:40:07;2.50;;;1.87;;
23270;SDS011;11804;51.118;17.058;2022-12-31T11:45:21;2.33;;;1.73;;
23270;SDS011;11804;51.118;17.058;2022-12-31T11:53:24;8.17;;;3.70;;
23270;SDS011;11804;51.118;17.058;2022-12-31T11:56:06;7.43;;;4.47;;
23270;SDS011;11804;51.118;17.058;2022-12-31T11:58:36;4.07;;;2.37;;
23270;SDS011;11804;51.118;17.058;2022-12-31T12:03:39;3.43;;;1.70;;
23270;SDS011;11804;51.118;17.058;2022-12-31T12:06:10;1.60;;;1.50;;
23270;SDS011;11804;51.118;17.058;2022-12-31T12:08:39;3.53;;;1.70;;
23270;SDS011;11804;51.118;17.058;2022-12-31T12:11:26;3.50;;;1.80;;
23270;SDS011;11804;51.118;17.058;2022-12-31T12:13:53;3.33;;;1.70;;
23270;SDS011;11804;51.118;17.058;2022-12-31T12:16:23;2.70;;;1.60;;
23270;SDS011;11804;51.118;17.058;2022-12-31T12:19:03;2.90;;;1.60;;
23270;SDS011;11804;51.118;17.058;2022-12-31T12:21:31;2.43;;;1.50;;
23270;SDS011;11804;51.118;17.058;2022-12-31T12:24:04;4.97;;;1.97;;
23270;SDS011;11804;51.118;17.058;2022-12-31T12:26:35;6.17;;;2.03;;
23270;SDS011;11804;51.118;17.058;2022-12-31T12:31:52;4.70;;;2.07;;
23270;SDS011;11804;51.118;17.058;2022-12-31T12:34:28;3.00;;;2.00;;
23270;SDS011;11804;51.118;17.058;2022-12-31T12:36:58;9.53;;;3.20;;
23270;SDS011;11804;51.118;17.058;2022-12-31T12:39:26;4.63;;;2.07;;
23270;SDS011;11804;51.118;17.058;2022-12-31T12:42:12;4.13;;;2.30;;
23270;SDS011;11804;51.118;17.058;2022-12-31T12:44:40;3.57;;;2.03;;
23270;SDS011;11804;51.118;17.058;2022-12-31T12:47:10;3.80;;;2.07;;
23270;SDS011;11804;51.118;17.058;2022-12-31T12:49:39;5.50;;;2.40;;
23270;SDS011;11804;51.118;17.058;2022-12-31T13:06:36;15.53;;;7.43;;
23270;SDS011;11804;51.118;17.058;2022-12-31T13:09:22;14.37;;;5.83;;
23270;SDS011;11804;51.118;17.058;2022-12-31T13:15:02;9.43;;;4.77;;
23270;SDS011;11804;51.118;17.058;2022-12-31T13:17:37;10.50;;;4.53;;
23270;SDS011;11804;51.118;17.058;2022-12-31T13:20:22;6.87;;;3.50;;
23270;SDS011;11804;51.118;17.058;2022-12-31T13:22:57;21.27;;;7.17;;
23270;SDS011;11804;51.118;17.058;2022-12-31T13:25:56;15.00;;;7.13;;
23270;SDS011;11804;51.118;17.058;2022-12-31T13:28:18;10.10;;;5.30;;
23270;SDS011;11804;51.118;17.058;2022-12-31T13:30:48;23.97;;;9.60;;
23270;SDS011;11804;51.118;17.058;2022-12-31T13:33:19;14.10;;;6.93;;
23270;SDS011;11804;51.118;17.058;2022-12-31T13:35:58;10.17;;;5.17;;
23270;SDS011;11804;51.118;17.058;2022-12-31T13:38:32;10.97;;;5.93;;
23270;SDS011;11804;51.118;17.058;2022-12-31T13:46:31;17.80;;;7.50;;
23270;SDS011;11804;51.118;17.058;2022-12-31T13:48:56;10.00;;;5.00;;
23270;SDS011;11804;51.118;17.058;2022-12-31T13:51:32;13.37;;;6.20;;
23270;SDS011;11804;51.118;17.058;2022-12-31T13:54:29;9.20;;;3.20;;
23270;SDS011;11804;51.118;17.058;2022-12-31T13:57:08;6.07;;;3.53;;
23270;SDS011;11804;51.118;17.058;2022-12-31T13:59:35;7.30;;;3.87;;
23270;SDS011;11804;51.118;17.058;2022-12-31T14:07:48;8.23;;;4.63;;
23270;SDS011;11804;51.118;17.058;2022-12-31T14:10:17;6.13;;;3.60;;
23270;SDS011;11804;51.118;17.058;2022-12-31T14:16:01;5.17;;;2.93;;
23270;SDS011;11804;51.118;17.058;2022-12-31T14:18:29;4.87;;;3.17;;
23270;SDS011;11804;51.118;17.058;2022-12-31T14:21:10;3.83;;;2.80;;
23270;SDS011;11804;51.118;17.058;2022-12-31T14:26:34;4.33;;;2.77;;
23270;SDS011;11804;51.118;17.058;2022-12-31T14:29:09;3.70;;;2.70;;
23270;SDS011;11804;51.118;17.058;2022-12-31T14:37:13;3.90;;;2.57;;
23270;SDS011;11804;51.118;17.058;2022-12-31T14:39:59;7.33;;;3.10;;
23270;SDS011;11804;51.118;17.058;2022-12-31T14:42:51;4.00;;;3.07;;
23270;SDS011;11804;51.118;17.058;2022-12-31T14:45:41;3.37;;;2.57;;
23270;SDS011;11804;51.118;17.058;2022-12-31T14:48:24;5.80;;;2.87;;
23270;SDS011;11804;51.118;17.058;2022-12-31T14:50:57;5.53;;;2.87;;
23270;SDS011;11804;51.118;17.058;2022-12-31T14:53:27;3.53;;;2.70;;
23270;SDS011;11804;51.118;17.058;2022-12-31T14:56:05;2.43;;;2.23;;
23270;SDS011;11804;51.118;17.058;2022-12-31T14:58:35;3.73;;;2.83;;
23270;SDS011;11804;51.118;17.058;2022-12-31T15:01:05;3.67;;;2.80;;
23270;SDS011;11804;51.118;17.058;2022-12-31T15:03:46;5.37;;;3.10;;
23270;SDS011;11804;51.118;17.058;2022-12-31T15:09:06;4.93;;;2.77;;
23270;SDS011;11804;51.118;17.058;2022-12-31T15:11:41;3.87;;;3.00;;
23270;SDS011;11804;51.118;17.058;2022-12-31T15:17:11;5.67;;;3.67;;
23270;SDS011;11804;51.118;17.058;2022-12-31T15:20:34;5.70;;;2.97;;
23270;SDS011;11804;51.118;17.058;2022-12-31T15:24:56;4.63;;;3.07;;
23270;SDS011;11804;51.118;17.058;2022-12-31T15:27:35;5.23;;;3.10;;
23270;SDS011;11804;51.118;17.058;2022-12-31T15:30:25;7.37;;;3.03;;
23270;SDS011;11804;51.118;17.058;2022-12-31T15:32:40;4.43;;;2.73;;
23270;SDS011;11804;51.118;17.058;2022-12-31T15:38:01;3.93;;;2.93;;
23270;SDS011;11804;51.118;17.058;2022-12-31T15:40:31;4.40;;;3.10;;
23270;SDS011;11804;51.118;17.058;2022-12-31T15:43:02;5.40;;;2.90;;
23270;SDS011;11804;51.118;17.058;2022-12-31T15:45:38;4.30;;;2.73;;
23270;SDS011;11804;51.118;17.058;2022-12-31T15:48:14;5.08;;;3.17;;
23270;SDS011;11804;51.118;17.058;2022-12-31T15:50:38;5.00;;;3.13;;
23270;SDS011;11804;51.118;17.058;2022-12-31T15:53:07;6.00;;;3.17;;
23270;SDS011;11804;51.118;17.058;2022-12-31T15:55:46;4.70;;;3.30;;
23270;SDS011;11804;51.118;17.058;2022-12-31T15:58:22;6.23;;;3.47;;
23270;SDS011;11804;51.118;17.058;2022-12-31T16:00:58;4.60;;;3.30;;
23270;SDS011;11804;51.118;17.058;2022-12-31T16:03:29;7.13;;;3.30;;
23270;SDS011;11804;51.118;17.058;2022-12-31T16:05:59;6.90;;;3.07;;
23270;SDS011;11804;51.118;17.058;2022-12-31T16:08:30;3.67;;;2.83;;
23270;SDS011;11804;51.118;17.058;2022-12-31T16:11:01;4.60;;;2.90;;
23270;SDS011;11804;51.118;17.058;2022-12-31T16:13:30;4.00;;;2.90;;
23270;SDS011;11804;51.118;17.058;2022-12-31T16:16:03;7.63;;;3.27;;
23270;SDS011;11804;51.118;17.058;2022-12-31T16:18:39;6.67;;;3.13;;
23270;SDS011;11804;51.118;17.058;2022-12-31T16:21:25;5.63;;;3.00;;
23270;SDS011;11804;51.118;17.058;2022-12-31T16:24:01;6.93;;;2.90;;
23270;SDS011;11804;51.118;17.058;2022-12-31T16:26:43;7.03;;;3.13;;
23270;SDS011;11804;51.118;17.058;2022-12-31T16:29:13;4.70;;;3.00;;
23270;SDS011;11804;51.118;17.058;2022-12-31T16:31:43;5.67;;;2.83;;
23270;SDS011;11804;51.118;17.058;2022-12-31T16:34:13;5.40;;;2.80;;
23270;SDS011;11804;51.118;17.058;2022-12-31T16:37:06;4.57;;;2.77;;
23270;SDS011;11804;51.118;17.058;2022-12-31T16:39:29;4.37;;;3.30;;
23270;SDS011;11804;51.118;17.058;2022-12-31T16:42:12;5.47;;;3.53;;
23270;SDS011;11804;51.118;17.058;2022-12-31T16:44:40;4.10;;;3.07;;
23270;SDS011;11804;51.118;17.058;2022-12-31T16:47:08;4.27;;;3.00;;
23270;SDS011;11804;51.118;17.058;2022-12-31T16:49:45;5.13;;;3.10;;
23270;SDS011;11804;51.118;17.058;2022-12-31T16:53:01;3.93;;;3.27;;
23270;SDS011;11804;51.118;17.058;2022-12-31T16:54:55;6.37;;;5.10;;
23270;SDS011;11804;51.118;17.058;2022-12-31T16:57:24;7.07;;;4.07;;
23270;SDS011;11804;51.118;17.058;2022-12-31T16:59:54;4.17;;;3.30;;
23270;SDS011;11804;51.118;17.058;2022-12-31T17:02:37;5.23;;;3.23;;
23270;SDS011;11804;51.118;17.058;2022-12-31T17:07:50;6.80;;;3.20;;
23270;SDS011;11804;51.118;17.058;2022-12-31T17:10:22;5.37;;;3.70;;
23270;SDS011;11804;51.118;17.058;2022-12-31T17:12:55;6.70;;;3.50;;
23270;SDS011;11804;51.118;17.058;2022-12-31T17:15:28;4.70;;;2.90;;
23270;SDS011;11804;51.118;17.058;2022-12-31T17:18:07;7.33;;;3.53;;
23270;SDS011;11804;51.118;17.058;2022-12-31T17:20:40;5.43;;;3.13;;
23270;SDS011;11804;51.118;17.058;2022-12-31T17:23:08;4.50;;;3.20;;
23270;SDS011;11804;51.118;17.058;2022-12-31T17:25:37;5.27;;;3.37;;
23270;SDS011;11804;51.118;17.058;2022-12-31T17:28:18;5.10;;;3.20;;
23270;SDS011;11804;51.118;17.058;2022-12-31T17:30:37;6.00;;;4.30;;
23270;SDS011;11804;51.118;17.058;2022-12-31T17:35:43;6.73;;;3.30;;
23270;SDS011;11804;51.118;17.058;2022-12-31T17:40:52;4.07;;;3.10;;
23270;SDS011;11804;51.118;17.058;2022-12-31T17:43:21;7.03;;;3.63;;
23270;SDS011;11804;51.118;17.058;2022-12-31T17:45:49;7.47;;;4.23;;
23270;SDS011;11804;51.118;17.058;2022-12-31T17:48:18;19.07;;;9.30;;
23270;SDS011;11804;51.118;17.058;2022-12-31T17:50:50;12.63;;;7.10;;
23270;SDS011;11804;51.118;17.058;2022-12-31T17:53:19;10.23;;;5.97;;
23270;SDS011;11804;51.118;17.058;2022-12-31T17:55:48;13.80;;;8.03;;
23270;SDS011;11804;51.118;17.058;2022-12-31T18:00:56;9.17;;;5.20;;
23270;SDS011;11804;51.118;17.058;2022-12-31T18:03:24;5.33;;;3.20;;
23270;SDS011;11804;51.118;17.058;2022-12-31T18:05:52;7.17;;;4.87;;
23270;SDS011;11804;51.118;17.058;2022-12-31T18:08:20;5.20;;;3.07;;
23270;SDS011;11804;51.118;17.058;2022-12-31T18:10:48;6.67;;;4.50;;
23270;SDS011;11804;51.118;17.058;2022-12-31T18:13:23;3.93;;;2.87;;
23270;SDS011;11804;51.118;17.058;2022-12-31T18:15:48;5.17;;;2.80;;
23270;SDS011;11804;51.118;17.058;2022-12-31T18:18:35;4.60;;;2.50;;
23270;SDS011;11804;51.118;17.058;2022-12-31T18:20:55;3.93;;;2.80;;
23270;SDS011;11804;51.118;17.058;2022-12-31T18:23:47;4.30;;;3.03;;
23270;SDS011;11804;51.118;17.058;2022-12-31T18:25:58;5.27;;;3.30;;
23270;SDS011;11804;51.118;17.058;2022-12-31T18:28:26;6.90;;;3.17;;
23270;SDS011;11804;51.118;17.058;2022-12-31T18:30:53;5.37;;;3.10;;
23270;SDS011;11804;51.118;17.058;2022-12-31T18:33:21;4.43;;;3.20;;